sensor_id;sensor_type;location;lat;lon;timestamp;P1;durP1;ratioP1;P2;durP2;ratioP2
66487;SDS011;53304;54.550;18.526;2023-06-19T00:00:58;7.28;;;4.30;;
66487;SDS011;53304;54.550;18.526;2023-06-19T00:03:26;6.63;;;4.05;;
66487;SDS011;53304;54.550;18.526;2023-06-19T00:05:54;5.55;;;3.55;;
66487;SDS011;53304;54.550;18.526;2023-06-19T00:08:19;5.28;;;3.50;;
66487;SDS011;53304;54.550;18.526;2023-06-19T00:10:44;5.75;;;3.80;;
66487;SDS011;53304;54.550;18.526;2023-06-19T00:13:15;7.05;;;4.18;;
66487;SDS011;53304;54.550;18.526;2023-06-19T00:15:44;6.30;;;3.85;;
66487;SDS011;53304;54.550;18.526;2023-06-19T00:18:12;6.00;;;3.90;;
66487;SDS011;53304;54.550;18.526;2023-06-19T00:20:37;6.30;;;4.03;;
66487;SDS011;53304;54.550;18.526;2023-06-19T00:23:05;7.00;;;3.88;;
66487;SDS011;53304;54.550;18.526;2023-06-19T00:25:36;6.47;;;3.83;;
66487;SDS011;53304;54.550;18.526;2023-06-19T00:28:07;6.10;;;4.03;;
66487;SDS011;53304;54.550;18.526;2023-06-19T00:30:36;6.73;;;3.93;;
66487;SDS011;53304;54.550;18.526;2023-06-19T00:33:06;7.07;;;3.78;;
66487;SDS011;53304;54.550;18.526;2023-06-19T00:35:36;5.78;;;3.80;;
66487;SDS011;53304;54.550;18.526;2023-06-19T00:38:07;5.95;;;3.70;;
66487;SDS011;53304;54.550;18.526;2023-06-19T00:40:33;7.07;;;3.85;;
66487;SDS011;53304;54.550;18.526;2023-06-19T00:42:59;7.07;;;3.78;;
66487;SDS011;53304;54.550;18.526;2023-06-19T00:45:24;6.30;;;3.80;;
66487;SDS011;53304;54.550;18.526;2023-06-19T00:47:55;6.22;;;3.67;;
66487;SDS011;53304;54.550;18.526;2023-06-19T00:50:25;6.10;;;3.75;;
66487;SDS011;53304;54.550;18.526;2023-06-19T00:52:51;5.65;;;3.45;;
66487;SDS011;53304;54.550;18.526;2023-06-19T00:55:16;6.45;;;3.80;;
66487;SDS011;53304;54.550;18.526;2023-06-19T00:57:45;5.13;;;3.80;;
66487;SDS011;53304;54.550;18.526;2023-06-19T01:00:10;7.00;;;4.05;;
66487;SDS011;53304;54.550;18.526;2023-06-19T01:02:41;5.68;;;3.60;;
66487;SDS011;53304;54.550;18.526;2023-06-19T01:05:07;5.85;;;3.65;;
66487;SDS011;53304;54.550;18.526;2023-06-19T01:10:38;5.75;;;3.63;;
66487;SDS011;53304;54.550;18.526;2023-06-19T01:16:04;4.97;;;3.38;;
66487;SDS011;53304;54.550;18.526;2023-06-19T01:18:36;5.35;;;3.45;;
66487;SDS011;53304;54.550;18.526;2023-06-19T01:21:13;5.80;;;3.50;;
66487;SDS011;53304;54.550;18.526;2023-06-19T01:23:39;6.45;;;3.72;;
66487;SDS011;53304;54.550;18.526;2023-06-19T01:26:05;6.90;;;3.85;;
66487;SDS011;53304;54.550;18.526;2023-06-19T01:28:32;6.25;;;3.70;;
66487;SDS011;53304;54.550;18.526;2023-06-19T01:30:58;6.57;;;3.72;;
66487;SDS011;53304;54.550;18.526;2023-06-19T01:33:30;6.45;;;3.63;;
66487;SDS011;53304;54.550;18.526;2023-06-19T01:36:00;6.40;;;3.90;;
66487;SDS011;53304;54.550;18.526;2023-06-19T01:38:27;5.93;;;3.55;;
66487;SDS011;53304;54.550;18.526;2023-06-19T01:40:54;6.18;;;3.95;;
66487;SDS011;53304;54.550;18.526;2023-06-19T01:43:23;6.70;;;3.88;;
66487;SDS011;53304;54.550;18.526;2023-06-19T01:45:49;7.30;;;3.83;;
66487;SDS011;53304;54.550;18.526;2023-06-19T01:48:17;6.18;;;3.78;;
66487;SDS011;53304;54.550;18.526;2023-06-19T01:50:46;6.82;;;3.90;;
66487;SDS011;53304;54.550;18.526;2023-06-19T01:53:14;5.55;;;3.72;;
66487;SDS011;53304;54.550;18.526;2023-06-19T01:55:40;5.50;;;3.80;;
66487;SDS011;53304;54.550;18.526;2023-06-19T01:58:06;5.75;;;3.67;;
66487;SDS011;53304;54.550;18.526;2023-06-19T02:00:32;5.93;;;3.50;;
66487;SDS011;53304;54.550;18.526;2023-06-19T02:03:02;5.78;;;3.58;;
66487;SDS011;53304;54.550;18.526;2023-06-19T02:05:30;5.15;;;3.42;;
66487;SDS011;53304;54.550;18.526;2023-06-19T02:08:01;5.40;;;3.30;;
66487;SDS011;53304;54.550;18.526;2023-06-19T02:10:29;6.53;;;3.78;;
66487;SDS011;53304;54.550;18.526;2023-06-19T02:12:54;5.75;;;3.42;;
66487;SDS011;53304;54.550;18.526;2023-06-19T02:15:25;5.40;;;3.33;;
66487;SDS011;53304;54.550;18.526;2023-06-19T02:17:55;5.43;;;3.60;;
66487;SDS011;53304;54.550;18.526;2023-06-19T02:20:21;6.50;;;3.40;;
66487;SDS011;53304;54.550;18.526;2023-06-19T02:22:47;5.85;;;3.72;;
66487;SDS011;53304;54.550;18.526;2023-06-19T02:25:17;5.13;;;3.47;;
66487;SDS011;53304;54.550;18.526;2023-06-19T02:27:43;6.45;;;3.90;;
66487;SDS011;53304;54.550;18.526;2023-06-19T02:30:08;6.32;;;3.50;;
66487;SDS011;53304;54.550;18.526;2023-06-19T02:32:34;5.65;;;3.72;;
66487;SDS011;53304;54.550;18.526;2023-06-19T02:35:06;6.03;;;3.58;;
66487;SDS011;53304;54.550;18.526;2023-06-19T02:37:33;6.18;;;3.55;;
66487;SDS011;53304;54.550;18.526;2023-06-19T02:40:05;5.63;;;3.60;;
66487;SDS011;53304;54.550;18.526;2023-06-19T02:42:31;6.05;;;3.67;;
66487;SDS011;53304;54.550;18.526;2023-06-19T02:44:57;5.70;;;3.78;;
66487;SDS011;53304;54.550;18.526;2023-06-19T02:47:31;6.63;;;3.40;;
66487;SDS011;53304;54.550;18.526;2023-06-19T02:50:02;6.20;;;3.80;;
66487;SDS011;53304;54.550;18.526;2023-06-19T02:52:31;6.55;;;3.80;;
66487;SDS011;53304;54.550;18.526;2023-06-19T02:55:01;5.43;;;3.45;;
66487;SDS011;53304;54.550;18.526;2023-06-19T02:57:29;7.25;;;3.60;;
66487;SDS011;53304;54.550;18.526;2023-06-19T02:59:59;6.60;;;3.70;;
66487;SDS011;53304;54.550;18.526;2023-06-19T03:02:28;5.83;;;3.53;;
66487;SDS011;53304;54.550;18.526;2023-06-19T03:04:53;5.35;;;3.50;;
66487;SDS011;53304;54.550;18.526;2023-06-19T03:07:21;5.95;;;3.60;;
66487;SDS011;53304;54.550;18.526;2023-06-19T03:09:46;6.25;;;3.60;;
66487;SDS011;53304;54.550;18.526;2023-06-19T03:12:14;5.65;;;3.55;;
66487;SDS011;53304;54.550;18.526;2023-06-19T03:14:42;5.75;;;3.50;;
66487;SDS011;53304;54.550;18.526;2023-06-19T03:17:12;5.10;;;3.38;;
66487;SDS011;53304;54.550;18.526;2023-06-19T03:19:37;6.00;;;3.67;;
66487;SDS011;53304;54.550;18.526;2023-06-19T03:22:03;5.53;;;3.33;;
66487;SDS011;53304;54.550;18.526;2023-06-19T03:24:28;5.43;;;3.33;;
66487;SDS011;53304;54.550;18.526;2023-06-19T03:26:56;5.70;;;3.50;;
66487;SDS011;53304;54.550;18.526;2023-06-19T03:29:24;5.65;;;3.50;;
66487;SDS011;53304;54.550;18.526;2023-06-19T03:31:51;6.75;;;3.55;;
66487;SDS011;53304;54.550;18.526;2023-06-19T03:34:19;5.63;;;3.40;;
66487;SDS011;53304;54.550;18.526;2023-06-19T03:36:44;5.82;;;3.65;;
66487;SDS011;53304;54.550;18.526;2023-06-19T03:39:12;5.55;;;3.33;;
66487;SDS011;53304;54.550;18.526;2023-06-19T03:41:41;5.70;;;3.22;;
66487;SDS011;53304;54.550;18.526;2023-06-19T03:44:06;5.47;;;3.40;;
66487;SDS011;53304;54.550;18.526;2023-06-19T03:46:31;6.30;;;3.53;;
66487;SDS011;53304;54.550;18.526;2023-06-19T03:48:59;5.95;;;3.58;;
66487;SDS011;53304;54.550;18.526;2023-06-19T03:51:29;6.57;;;3.72;;
66487;SDS011;53304;54.550;18.526;2023-06-19T03:53:57;6.22;;;3.63;;
66487;SDS011;53304;54.550;18.526;2023-06-19T03:56:22;5.45;;;3.55;;
66487;SDS011;53304;54.550;18.526;2023-06-19T03:58:50;5.70;;;3.65;;
66487;SDS011;53304;54.550;18.526;2023-06-19T04:01:18;5.63;;;3.35;;
66487;SDS011;53304;54.550;18.526;2023-06-19T04:03:43;5.38;;;3.05;;
66487;SDS011;53304;54.550;18.526;2023-06-19T04:06:08;5.93;;;3.50;;
66487;SDS011;53304;54.550;18.526;2023-06-19T04:08:36;6.93;;;3.75;;
66487;SDS011;53304;54.550;18.526;2023-06-19T04:11:06;5.82;;;3.08;;
66487;SDS011;53304;54.550;18.526;2023-06-19T04:13:32;5.60;;;3.42;;
66487;SDS011;53304;54.550;18.526;2023-06-19T04:15:57;5.68;;;3.30;;
66487;SDS011;53304;54.550;18.526;2023-06-19T04:18:25;4.72;;;3.20;;
66487;SDS011;53304;54.550;18.526;2023-06-19T04:20:53;5.50;;;3.63;;
66487;SDS011;53304;54.550;18.526;2023-06-19T04:23:19;5.97;;;3.45;;
66487;SDS011;53304;54.550;18.526;2023-06-19T04:25:46;5.63;;;3.47;;
66487;SDS011;53304;54.550;18.526;2023-06-19T04:28:12;5.30;;;3.42;;
66487;SDS011;53304;54.550;18.526;2023-06-19T04:30:37;5.10;;;3.17;;
66487;SDS011;53304;54.550;18.526;2023-06-19T04:33:05;5.60;;;3.20;;
66487;SDS011;53304;54.550;18.526;2023-06-19T04:35:31;6.10;;;3.33;;
66487;SDS011;53304;54.550;18.526;2023-06-19T04:37:57;5.43;;;3.00;;
66487;SDS011;53304;54.550;18.526;2023-06-19T04:40:28;5.13;;;3.10;;
66487;SDS011;53304;54.550;18.526;2023-06-19T04:42:53;5.22;;;3.20;;
66487;SDS011;53304;54.550;18.526;2023-06-19T04:45:19;5.43;;;3.30;;
66487;SDS011;53304;54.550;18.526;2023-06-19T04:47:49;5.03;;;3.17;;
66487;SDS011;53304;54.550;18.526;2023-06-19T04:50:14;5.03;;;3.20;;
66487;SDS011;53304;54.550;18.526;2023-06-19T04:52:43;6.60;;;3.60;;
66487;SDS011;53304;54.550;18.526;2023-06-19T04:55:09;4.78;;;3.25;;
66487;SDS011;53304;54.550;18.526;2023-06-19T04:57:37;5.78;;;3.25;;
66487;SDS011;53304;54.550;18.526;2023-06-19T05:00:03;5.32;;;3.20;;
66487;SDS011;53304;54.550;18.526;2023-06-19T05:02:34;6.20;;;3.40;;
66487;SDS011;53304;54.550;18.526;2023-06-19T05:05:00;5.30;;;3.25;;
66487;SDS011;53304;54.550;18.526;2023-06-19T05:07:33;5.75;;;3.42;;
66487;SDS011;53304;54.550;18.526;2023-06-19T05:09:58;4.95;;;3.08;;
66487;SDS011;53304;54.550;18.526;2023-06-19T05:12:26;5.28;;;3.20;;
66487;SDS011;53304;54.550;18.526;2023-06-19T05:14:54;6.25;;;3.30;;
66487;SDS011;53304;54.550;18.526;2023-06-19T05:17:22;5.32;;;3.10;;
66487;SDS011;53304;54.550;18.526;2023-06-19T05:19:47;6.93;;;3.15;;
66487;SDS011;53304;54.550;18.526;2023-06-19T05:22:15;6.32;;;3.25;;
66487;SDS011;53304;54.550;18.526;2023-06-19T05:24:43;4.72;;;2.85;;
66487;SDS011;53304;54.550;18.526;2023-06-19T05:27:08;5.78;;;3.10;;
66487;SDS011;53304;54.550;18.526;2023-06-19T05:29:36;4.85;;;3.10;;
66487;SDS011;53304;54.550;18.526;2023-06-19T05:32:01;5.25;;;3.13;;
66487;SDS011;53304;54.550;18.526;2023-06-19T05:34:27;5.13;;;2.90;;
66487;SDS011;53304;54.550;18.526;2023-06-19T05:36:52;4.72;;;2.92;;
66487;SDS011;53304;54.550;18.526;2023-06-19T05:39:18;5.18;;;3.25;;
66487;SDS011;53304;54.550;18.526;2023-06-19T05:41:44;4.88;;;3.00;;
66487;SDS011;53304;54.550;18.526;2023-06-19T05:44:10;5.90;;;3.10;;
66487;SDS011;53304;54.550;18.526;2023-06-19T05:46:40;5.32;;;3.05;;
66487;SDS011;53304;54.550;18.526;2023-06-19T05:49:08;4.88;;;3.15;;
66487;SDS011;53304;54.550;18.526;2023-06-19T05:51:33;5.45;;;3.20;;
66487;SDS011;53304;54.550;18.526;2023-06-19T05:54:01;4.60;;;2.90;;
66487;SDS011;53304;54.550;18.526;2023-06-19T05:56:32;4.68;;;2.90;;
66487;SDS011;53304;54.550;18.526;2023-06-19T05:59:00;5.35;;;3.05;;
66487;SDS011;53304;54.550;18.526;2023-06-19T06:01:29;4.83;;;3.10;;
66487;SDS011;53304;54.550;18.526;2023-06-19T06:03:55;5.32;;;3.00;;
66487;SDS011;53304;54.550;18.526;2023-06-19T06:06:26;5.70;;;3.20;;
66487;SDS011;53304;54.550;18.526;2023-06-19T06:08:54;5.57;;;3.00;;
66487;SDS011;53304;54.550;18.526;2023-06-19T06:11:20;4.70;;;2.80;;
66487;SDS011;53304;54.550;18.526;2023-06-19T06:13:47;4.75;;;2.83;;
66487;SDS011;53304;54.550;18.526;2023-06-19T06:16:15;5.05;;;2.92;;
66487;SDS011;53304;54.550;18.526;2023-06-19T06:18:41;4.78;;;2.80;;
66487;SDS011;53304;54.550;18.526;2023-06-19T06:21:08;4.10;;;2.63;;
66487;SDS011;53304;54.550;18.526;2023-06-19T06:23:34;5.32;;;2.83;;
66487;SDS011;53304;54.550;18.526;2023-06-19T06:25:59;5.95;;;2.72;;
66487;SDS011;53304;54.550;18.526;2023-06-19T06:28:30;4.72;;;2.60;;
66487;SDS011;53304;54.550;18.526;2023-06-19T06:31:00;4.15;;;2.90;;
66487;SDS011;53304;54.550;18.526;2023-06-19T06:33:25;4.43;;;2.72;;
66487;SDS011;53304;54.550;18.526;2023-06-19T06:35:51;4.95;;;2.60;;
66487;SDS011;53304;54.550;18.526;2023-06-19T06:38:18;4.90;;;2.90;;
66487;SDS011;53304;54.550;18.526;2023-06-19T06:40:46;5.75;;;2.80;;
66487;SDS011;53304;54.550;18.526;2023-06-19T06:43:12;4.28;;;2.85;;
66487;SDS011;53304;54.550;18.526;2023-06-19T06:45:40;4.75;;;2.72;;
66487;SDS011;53304;54.550;18.526;2023-06-19T06:48:07;5.13;;;2.85;;
66487;SDS011;53304;54.550;18.526;2023-06-19T06:50:35;3.53;;;2.45;;
66487;SDS011;53304;54.550;18.526;2023-06-19T06:53:03;4.28;;;2.70;;
66487;SDS011;53304;54.550;18.526;2023-06-19T06:55:30;4.65;;;3.00;;
66487;SDS011;53304;54.550;18.526;2023-06-19T06:58:00;4.72;;;2.97;;
66487;SDS011;53304;54.550;18.526;2023-06-19T07:00:28;5.53;;;3.05;;
66487;SDS011;53304;54.550;18.526;2023-06-19T07:02:56;4.53;;;2.70;;
66487;SDS011;53304;54.550;18.526;2023-06-19T07:05:21;4.82;;;2.90;;
66487;SDS011;53304;54.550;18.526;2023-06-19T07:07:47;4.50;;;2.80;;
66487;SDS011;53304;54.550;18.526;2023-06-19T07:10:12;4.25;;;2.50;;
66487;SDS011;53304;54.550;18.526;2023-06-19T07:12:44;5.03;;;2.80;;
66487;SDS011;53304;54.550;18.526;2023-06-19T07:15:16;4.03;;;2.58;;
66487;SDS011;53304;54.550;18.526;2023-06-19T07:17:41;4.28;;;2.60;;
66487;SDS011;53304;54.550;18.526;2023-06-19T07:20:10;5.00;;;2.70;;
66487;SDS011;53304;54.550;18.526;2023-06-19T07:22:36;4.20;;;2.50;;
66487;SDS011;53304;54.550;18.526;2023-06-19T07:25:04;5.35;;;2.70;;
66487;SDS011;53304;54.550;18.526;2023-06-19T07:27:30;4.38;;;2.75;;
66487;SDS011;53304;54.550;18.526;2023-06-19T07:29:58;4.57;;;2.47;;
66487;SDS011;53304;54.550;18.526;2023-06-19T07:32:23;4.30;;;2.75;;
66487;SDS011;53304;54.550;18.526;2023-06-19T07:34:49;4.55;;;2.80;;
66487;SDS011;53304;54.550;18.526;2023-06-19T07:37:17;4.28;;;2.50;;
66487;SDS011;53304;54.550;18.526;2023-06-19T07:39:48;3.92;;;2.38;;
66487;SDS011;53304;54.550;18.526;2023-06-19T07:42:17;3.97;;;2.75;;
66487;SDS011;53304;54.550;18.526;2023-06-19T07:44:46;5.88;;;2.90;;
66487;SDS011;53304;54.550;18.526;2023-06-19T07:47:14;5.25;;;2.70;;
66487;SDS011;53304;54.550;18.526;2023-06-19T07:49:40;4.15;;;2.50;;
66487;SDS011;53304;54.550;18.526;2023-06-19T07:52:08;5.57;;;2.72;;
66487;SDS011;53304;54.550;18.526;2023-06-19T07:54:47;4.05;;;2.50;;
66487;SDS011;53304;54.550;18.526;2023-06-19T07:57:22;4.43;;;2.72;;
66487;SDS011;53304;54.550;18.526;2023-06-19T07:59:51;4.63;;;2.80;;
66487;SDS011;53304;54.550;18.526;2023-06-19T08:02:18;4.38;;;2.50;;
66487;SDS011;53304;54.550;18.526;2023-06-19T08:04:43;4.85;;;2.70;;
66487;SDS011;53304;54.550;18.526;2023-06-19T08:07:11;4.43;;;2.33;;
66487;SDS011;53304;54.550;18.526;2023-06-19T08:09:36;3.95;;;2.58;;
66487;SDS011;53304;54.550;18.526;2023-06-19T08:12:02;4.70;;;2.58;;
66487;SDS011;53304;54.550;18.526;2023-06-19T08:14:30;3.88;;;2.50;;
66487;SDS011;53304;54.550;18.526;2023-06-19T08:16:56;4.07;;;2.30;;
66487;SDS011;53304;54.550;18.526;2023-06-19T08:19:21;4.88;;;2.85;;
66487;SDS011;53304;54.550;18.526;2023-06-19T08:21:49;4.88;;;2.50;;
66487;SDS011;53304;54.550;18.526;2023-06-19T08:24:14;4.63;;;2.80;;
66487;SDS011;53304;54.550;18.526;2023-06-19T08:26:42;4.57;;;2.80;;
66487;SDS011;53304;54.550;18.526;2023-06-19T08:29:10;4.47;;;2.92;;
66487;SDS011;53304;54.550;18.526;2023-06-19T08:31:40;4.80;;;2.63;;
66487;SDS011;53304;54.550;18.526;2023-06-19T08:34:08;4.13;;;2.60;;
66487;SDS011;53304;54.550;18.526;2023-06-19T08:36:36;4.15;;;2.55;;
66487;SDS011;53304;54.550;18.526;2023-06-19T08:39:02;4.30;;;2.60;;
66487;SDS011;53304;54.550;18.526;2023-06-19T08:41:30;4.90;;;2.83;;
66487;SDS011;53304;54.550;18.526;2023-06-19T08:43:55;4.63;;;2.70;;
66487;SDS011;53304;54.550;18.526;2023-06-19T08:46:21;4.20;;;2.42;;
66487;SDS011;53304;54.550;18.526;2023-06-19T08:48:51;4.75;;;2.78;;
66487;SDS011;53304;54.550;18.526;2023-06-19T08:51:19;3.55;;;2.65;;
66487;SDS011;53304;54.550;18.526;2023-06-19T08:53:48;3.67;;;2.45;;
66487;SDS011;53304;54.550;18.526;2023-06-19T08:56:22;6.40;;;2.80;;
66487;SDS011;53304;54.550;18.526;2023-06-19T08:58:50;4.88;;;2.65;;
66487;SDS011;53304;54.550;18.526;2023-06-19T09:01:18;4.55;;;2.75;;
66487;SDS011;53304;54.550;18.526;2023-06-19T09:03:51;3.95;;;2.70;;
66487;SDS011;53304;54.550;18.526;2023-06-19T09:06:20;4.90;;;2.90;;
66487;SDS011;53304;54.550;18.526;2023-06-19T09:08:56;4.03;;;2.50;;
66487;SDS011;53304;54.550;18.526;2023-06-19T09:11:25;4.57;;;2.42;;
66487;SDS011;53304;54.550;18.526;2023-06-19T09:13:57;4.30;;;2.80;;
66487;SDS011;53304;54.550;18.526;2023-06-19T09:16:26;4.18;;;2.58;;
66487;SDS011;53304;54.550;18.526;2023-06-19T09:19:02;3.63;;;2.38;;
66487;SDS011;53304;54.550;18.526;2023-06-19T09:21:29;4.47;;;2.70;;
66487;SDS011;53304;54.550;18.526;2023-06-19T09:24:06;4.82;;;2.97;;
66487;SDS011;53304;54.550;18.526;2023-06-19T09:26:35;4.22;;;2.60;;
66487;SDS011;53304;54.550;18.526;2023-06-19T09:29:13;4.68;;;2.60;;
66487;SDS011;53304;54.550;18.526;2023-06-19T09:31:45;3.85;;;2.60;;
66487;SDS011;53304;54.550;18.526;2023-06-19T09:34:10;4.07;;;2.50;;
66487;SDS011;53304;54.550;18.526;2023-06-19T09:36:36;4.05;;;2.70;;
66487;SDS011;53304;54.550;18.526;2023-06-19T09:39:01;5.30;;;3.30;;
66487;SDS011;53304;54.550;18.526;2023-06-19T09:41:29;4.95;;;2.70;;
66487;SDS011;53304;54.550;18.526;2023-06-19T09:43:57;5.05;;;2.85;;
66487;SDS011;53304;54.550;18.526;2023-06-19T09:46:26;3.90;;;2.60;;
66487;SDS011;53304;54.550;18.526;2023-06-19T09:48:54;4.55;;;2.80;;
66487;SDS011;53304;54.550;18.526;2023-06-19T09:51:26;4.13;;;2.78;;
66487;SDS011;53304;54.550;18.526;2023-06-19T09:53:56;4.10;;;2.63;;
66487;SDS011;53304;54.550;18.526;2023-06-19T09:56:24;5.85;;;3.00;;
66487;SDS011;53304;54.550;18.526;2023-06-19T09:58:53;4.47;;;2.75;;
66487;SDS011;53304;54.550;18.526;2023-06-19T10:01:21;5.13;;;2.95;;
66487;SDS011;53304;54.550;18.526;2023-06-19T10:03:48;4.90;;;3.05;;
66487;SDS011;53304;54.550;18.526;2023-06-19T10:06:14;5.72;;;3.05;;
66487;SDS011;53304;54.550;18.526;2023-06-19T10:08:44;4.65;;;2.95;;
66487;SDS011;53304;54.550;18.526;2023-06-19T10:11:13;4.57;;;2.72;;
66487;SDS011;53304;54.550;18.526;2023-06-19T10:13:42;5.03;;;2.90;;
66487;SDS011;53304;54.550;18.526;2023-06-19T10:16:20;4.73;;;2.90;;
66487;SDS011;53304;54.550;18.526;2023-06-19T10:18:49;5.53;;;2.78;;
66487;SDS011;53304;54.550;18.526;2023-06-19T10:21:20;5.17;;;3.03;;
66487;SDS011;53304;54.550;18.526;2023-06-19T10:23:55;4.53;;;2.75;;
66487;SDS011;53304;54.550;18.526;2023-06-19T10:26:29;4.88;;;2.90;;
66487;SDS011;53304;54.550;18.526;2023-06-19T10:29:00;4.68;;;2.90;;
66487;SDS011;53304;54.550;18.526;2023-06-19T10:31:38;4.28;;;2.80;;
66487;SDS011;53304;54.550;18.526;2023-06-19T10:34:06;5.00;;;3.00;;
66487;SDS011;53304;54.550;18.526;2023-06-19T10:36:31;4.78;;;2.97;;
66487;SDS011;53304;54.550;18.526;2023-06-19T10:38:57;4.88;;;3.05;;
66487;SDS011;53304;54.550;18.526;2023-06-19T10:41:25;4.38;;;2.70;;
66487;SDS011;53304;54.550;18.526;2023-06-19T10:43:57;4.53;;;2.80;;
66487;SDS011;53304;54.550;18.526;2023-06-19T10:46:29;5.63;;;3.00;;
66487;SDS011;53304;54.550;18.526;2023-06-19T10:48:55;4.50;;;2.80;;
66487;SDS011;53304;54.550;18.526;2023-06-19T10:51:26;4.68;;;2.67;;
66487;SDS011;53304;54.550;18.526;2023-06-19T10:53:53;4.38;;;2.80;;
66487;SDS011;53304;54.550;18.526;2023-06-19T10:56:20;4.75;;;3.08;;
66487;SDS011;53304;54.550;18.526;2023-06-19T10:58:47;4.55;;;2.90;;
66487;SDS011;53304;54.550;18.526;2023-06-19T11:01:12;4.03;;;2.65;;
66487;SDS011;53304;54.550;18.526;2023-06-19T11:03:38;4.88;;;3.00;;
66487;SDS011;53304;54.550;18.526;2023-06-19T11:06:03;5.60;;;3.10;;
66487;SDS011;53304;54.550;18.526;2023-06-19T11:08:29;3.72;;;2.38;;
66487;SDS011;53304;54.550;18.526;2023-06-19T11:10:57;5.10;;;2.80;;
66487;SDS011;53304;54.550;18.526;2023-06-19T11:13:24;4.47;;;2.85;;
66487;SDS011;53304;54.550;18.526;2023-06-19T11:15:52;4.65;;;3.05;;
66487;SDS011;53304;54.550;18.526;2023-06-19T11:18:20;4.80;;;2.90;;
66487;SDS011;53304;54.550;18.526;2023-06-19T11:20:49;5.07;;;3.05;;
66487;SDS011;53304;54.550;18.526;2023-06-19T11:23:24;4.63;;;2.83;;
66487;SDS011;53304;54.550;18.526;2023-06-19T11:26:04;4.75;;;3.00;;
66487;SDS011;53304;54.550;18.526;2023-06-19T11:28:34;4.30;;;2.85;;
66487;SDS011;53304;54.550;18.526;2023-06-19T11:31:01;4.60;;;2.80;;
66487;SDS011;53304;54.550;18.526;2023-06-19T11:33:30;5.53;;;2.80;;
66487;SDS011;53304;54.550;18.526;2023-06-19T11:36:00;5.50;;;3.33;;
66487;SDS011;53304;54.550;18.526;2023-06-19T11:38:29;4.93;;;3.25;;
66487;SDS011;53304;54.550;18.526;2023-06-19T11:40:56;4.60;;;2.75;;
66487;SDS011;53304;54.550;18.526;2023-06-19T11:45:53;4.95;;;3.20;;
66487;SDS011;53304;54.550;18.526;2023-06-19T11:48:27;5.80;;;3.33;;
66487;SDS011;53304;54.550;18.526;2023-06-19T11:50:55;4.85;;;3.10;;
66487;SDS011;53304;54.550;18.526;2023-06-19T11:53:21;5.35;;;3.15;;
66487;SDS011;53304;54.550;18.526;2023-06-19T11:55:47;4.72;;;3.20;;
66487;SDS011;53304;54.550;18.526;2023-06-19T11:58:15;5.55;;;3.20;;
66487;SDS011;53304;54.550;18.526;2023-06-19T12:00:44;5.25;;;3.28;;
66487;SDS011;53304;54.550;18.526;2023-06-19T12:03:12;5.28;;;3.47;;
66487;SDS011;53304;54.550;18.526;2023-06-19T12:05:40;5.43;;;3.47;;
66487;SDS011;53304;54.550;18.526;2023-06-19T12:08:08;5.70;;;3.47;;
66487;SDS011;53304;54.550;18.526;2023-06-19T12:10:34;5.35;;;3.00;;
66487;SDS011;53304;54.550;18.526;2023-06-19T12:12:59;5.28;;;3.40;;
66487;SDS011;53304;54.550;18.526;2023-06-19T12:15:25;5.80;;;3.58;;
66487;SDS011;53304;54.550;18.526;2023-06-19T12:17:53;4.93;;;3.22;;
66487;SDS011;53304;54.550;18.526;2023-06-19T12:20:22;4.80;;;3.08;;
66487;SDS011;53304;54.550;18.526;2023-06-19T12:22:50;5.05;;;3.30;;
66487;SDS011;53304;54.550;18.526;2023-06-19T12:25:16;5.20;;;3.47;;
66487;SDS011;53304;54.550;18.526;2023-06-19T12:27:41;5.45;;;3.30;;
66487;SDS011;53304;54.550;18.526;2023-06-19T12:30:09;4.53;;;3.15;;
66487;SDS011;53304;54.550;18.526;2023-06-19T12:32:35;4.82;;;3.20;;
66487;SDS011;53304;54.550;18.526;2023-06-19T12:35:02;5.32;;;3.30;;
66487;SDS011;53304;54.550;18.526;2023-06-19T12:37:29;4.63;;;3.10;;
66487;SDS011;53304;54.550;18.526;2023-06-19T12:39:56;5.20;;;3.40;;
66487;SDS011;53304;54.550;18.526;2023-06-19T12:42:22;4.75;;;3.10;;
66487;SDS011;53304;54.550;18.526;2023-06-19T12:44:47;5.82;;;3.67;;
66487;SDS011;53304;54.550;18.526;2023-06-19T12:47:15;5.05;;;3.30;;
66487;SDS011;53304;54.550;18.526;2023-06-19T12:49:45;5.40;;;3.28;;
66487;SDS011;53304;54.550;18.526;2023-06-19T12:52:13;5.70;;;3.53;;
66487;SDS011;53304;54.550;18.526;2023-06-19T12:54:41;4.80;;;3.35;;
66487;SDS011;53304;54.550;18.526;2023-06-19T12:57:07;5.10;;;3.42;;
66487;SDS011;53304;54.550;18.526;2023-06-19T12:59:32;4.97;;;3.28;;
66487;SDS011;53304;54.550;18.526;2023-06-19T13:02:00;5.80;;;3.67;;
66487;SDS011;53304;54.550;18.526;2023-06-19T13:04:30;5.45;;;3.30;;
66487;SDS011;53304;54.550;18.526;2023-06-19T13:06:55;4.75;;;3.20;;
66487;SDS011;53304;54.550;18.526;2023-06-19T13:09:21;5.30;;;3.28;;
66487;SDS011;53304;54.550;18.526;2023-06-19T13:11:51;5.05;;;3.00;;
66487;SDS011;53304;54.550;18.526;2023-06-19T13:14:17;5.43;;;3.30;;
66487;SDS011;53304;54.550;18.526;2023-06-19T13:16:42;5.78;;;3.60;;
66487;SDS011;53304;54.550;18.526;2023-06-19T13:19:11;5.60;;;3.50;;
66487;SDS011;53304;54.550;18.526;2023-06-19T13:21:36;4.90;;;3.30;;
66487;SDS011;53304;54.550;18.526;2023-06-19T13:24:10;6.40;;;3.75;;
66487;SDS011;53304;54.550;18.526;2023-06-19T13:26:41;4.35;;;3.15;;
66487;SDS011;53304;54.550;18.526;2023-06-19T13:29:07;5.90;;;3.58;;
66487;SDS011;53304;54.550;18.526;2023-06-19T13:31:33;5.15;;;3.47;;
66487;SDS011;53304;54.550;18.526;2023-06-19T13:34:01;5.28;;;3.33;;
66487;SDS011;53304;54.550;18.526;2023-06-19T13:36:28;5.43;;;3.50;;
66487;SDS011;53304;54.550;18.526;2023-06-19T13:38:54;4.88;;;3.30;;
66487;SDS011;53304;54.550;18.526;2023-06-19T13:41:22;5.88;;;3.47;;
66487;SDS011;53304;54.550;18.526;2023-06-19T13:43:54;5.05;;;3.40;;
66487;SDS011;53304;54.550;18.526;2023-06-19T13:46:22;5.15;;;3.38;;
66487;SDS011;53304;54.550;18.526;2023-06-19T13:48:50;5.60;;;3.63;;
66487;SDS011;53304;54.550;18.526;2023-06-19T13:51:18;5.55;;;3.60;;
66487;SDS011;53304;54.550;18.526;2023-06-19T13:53:45;5.22;;;3.58;;
66487;SDS011;53304;54.550;18.526;2023-06-19T13:56:11;5.25;;;3.35;;
66487;SDS011;53304;54.550;18.526;2023-06-19T13:58:36;5.35;;;3.53;;
66487;SDS011;53304;54.550;18.526;2023-06-19T14:01:07;5.63;;;3.58;;
66487;SDS011;53304;54.550;18.526;2023-06-19T14:03:36;5.28;;;3.15;;
66487;SDS011;53304;54.550;18.526;2023-06-19T14:06:02;6.57;;;3.72;;
66487;SDS011;53304;54.550;18.526;2023-06-19T14:08:30;5.38;;;3.72;;
66487;SDS011;53304;54.550;18.526;2023-06-19T14:11:00;5.38;;;3.33;;
66487;SDS011;53304;54.550;18.526;2023-06-19T14:13:26;6.07;;;3.50;;
66487;SDS011;53304;54.550;18.526;2023-06-19T14:15:52;5.38;;;3.50;;
66487;SDS011;53304;54.550;18.526;2023-06-19T14:18:18;5.25;;;3.55;;
66487;SDS011;53304;54.550;18.526;2023-06-19T14:20:46;5.95;;;3.65;;
66487;SDS011;53304;54.550;18.526;2023-06-19T14:23:11;5.45;;;3.58;;
66487;SDS011;53304;54.550;18.526;2023-06-19T14:25:39;4.85;;;3.10;;
66487;SDS011;53304;54.550;18.526;2023-06-19T14:28:06;5.68;;;3.90;;
66487;SDS011;53304;54.550;18.526;2023-06-19T14:30:32;5.18;;;3.55;;
66487;SDS011;53304;54.550;18.526;2023-06-19T14:32:59;4.88;;;3.38;;
66487;SDS011;53304;54.550;18.526;2023-06-19T14:35:25;5.88;;;3.38;;
66487;SDS011;53304;54.550;18.526;2023-06-19T14:37:53;5.28;;;3.83;;
66487;SDS011;53304;54.550;18.526;2023-06-19T14:40:18;5.38;;;3.75;;
66487;SDS011;53304;54.550;18.526;2023-06-19T14:42:43;6.60;;;4.18;;
66487;SDS011;53304;54.550;18.526;2023-06-19T14:45:11;5.45;;;3.70;;